Time;durP1;ratioP1;P1;durP2;ratioP2;P2;SDS_P1;SDS_P2;PMS_P1;PMS_P2;Temp;Humidity;BMP_temperature;BMP_pressure;BME280_temperature;BME280_humidity;BME280_pressure;Samples;Min_cycle;Max_cycle;Signal;HPM_P1;HPM_P2
2021/01/27 00:00:47;;;;;;;23.60;15.30;;;0.50;99.90;;;;;;5071630;28;20265;-86
2021/01/27 00:03:21;;;;;;;21.27;14.83;;;0.50;99.90;;;;;;5071871;28;20650;-86
2021/01/27 00:05:49;;;;;;;27.60;17.03;;;0.40;99.90;;;;;;5073144;28;20198;-85
2021/01/27 00:08:17;;;;;;;23.97;16.27;;;0.50;99.90;;;;;;5072046;28;20224;-86
2021/01/27 00:10:51;;;;;;;21.80;15.43;;;0.60;99.90;;;;;;5072779;28;20240;-87
2021/01/27 00:13:19;;;;;;;22.10;17.10;;;0.60;99.90;;;;;;5071750;28;20671;-86
2021/01/27 00:15:51;;;;;;;25.17;16.93;;;0.40;99.90;;;;;;5071819;28;20630;-87
2021/01/27 00:18:22;;;;;;;21.40;16.93;;;0.40;99.90;;;;;;5072860;28;20253;-86
2021/01/27 00:20:55;;;;;;;24.63;18.43;;;0.50;99.90;;;;;;5071521;28;20673;-87
2021/01/27 00:23:28;;;;;;;28.47;18.57;;;0.40;99.90;;;;;;5071598;28;20175;-87
2021/01/27 00:26:00;;;;;;;27.57;19.17;;;0.40;99.90;;;;;;5072685;28;20206;-86
2021/01/27 00:28:26;;;;;;;26.30;17.83;;;0.40;99.90;;;;;;5072554;28;20229;-86
2021/01/27 00:30:59;;;;;;;28.53;20.30;;;0.30;99.90;;;;;;5072752;28;20286;-86
2021/01/27 00:33:28;;;;;;;28.03;20.00;;;0.20;99.90;;;;;;5071605;28;20178;-87
2021/01/27 00:36:02;;;;;;;29.63;18.97;;;0.20;99.90;;;;;;5071354;28;20197;-87
2021/01/27 00:38:29;;;;;;;27.10;18.73;;;0.20;99.90;;;;;;5071542;28;20166;-87
2021/01/27 00:41:02;;;;;;;29.00;19.13;;;0.20;99.90;;;;;;5072597;28;20190;-87
2021/01/27 00:43:28;;;;;;;27.33;19.90;;;0.20;99.90;;;;;;5071356;28;20506;-86
2021/01/27 00:46:02;;;;;;;32.93;19.90;;;0.30;99.90;;;;;;5072466;28;20202;-86
2021/01/27 00:48:37;;;;;;;32.70;20.23;;;0.30;99.90;;;;;;5073258;28;20274;-86
2021/01/27 00:51:09;;;;;;;28.57;19.00;;;0.30;99.90;;;;;;5075378;28;20185;-86
2021/01/27 00:53:45;;;;;;;29.93;18.17;;;0.40;99.90;;;;;;5074959;28;20178;-87
2021/01/27 00:56:18;;;;;;;27.53;19.67;;;0.50;99.90;;;;;;5075330;28;20217;-87
2021/01/27 00:58:50;;;;;;;31.03;19.57;;;0.50;99.90;;;;;;5074900;28;20227;-87
2021/01/27 01:01:25;;;;;;;27.07;18.27;;;0.60;99.90;;;;;;5074715;28;20179;-87
2021/01/27 01:03:57;;;;;;;27.70;18.03;;;0.60;99.90;;;;;;5075945;28;20197;-87
2021/01/27 01:06:37;;;;;;;30.20;19.47;;;0.70;99.90;;;;;;5074979;28;20207;-87
2021/01/27 01:09:08;;;;;;;26.23;18.57;;;0.70;99.90;;;;;;5075701;28;20206;-87
2021/01/27 01:11:40;;;;;;;32.53;18.13;;;0.70;99.90;;;;;;5074549;28;20179;-86
2021/01/27 01:14:11;;;;;;;29.63;19.07;;;0.70;99.90;;;;;;5075494;28;20580;-85
2021/01/27 01:16:50;;;;;;;27.17;18.30;;;0.80;99.90;;;;;;5074259;28;20189;-86
2021/01/27 01:19:25;;;;;;;29.50;18.20;;;0.70;99.90;;;;;;5075139;28;20539;-86
2021/01/27 01:21:59;;;;;;;29.40;19.10;;;0.90;99.90;;;;;;5075699;28;20575;-86
2021/01/27 01:24:29;;;;;;;26.10;17.90;;;0.90;99.90;;;;;;5074192;28;20285;-86
2021/01/27 01:27:01;;;;;;;41.67;20.73;;;0.90;99.90;;;;;;5075358;28;20168;-86
2021/01/27 01:29:27;;;;;;;34.77;20.17;;;0.90;99.90;;;;;;5074084;28;20209;-86
2021/01/27 01:32:02;;;;;;;27.93;19.60;;;0.90;99.90;;;;;;5075591;28;20172;-86
2021/01/27 01:34:31;;;;;;;31.13;20.83;;;0.80;99.90;;;;;;5075304;28;20217;-87
2021/01/27 01:37:02;;;;;;;31.33;19.63;;;0.70;99.90;;;;;;5073839;28;20182;-86
2021/01/27 01:39:33;;;;;;;32.33;20.33;;;0.70;99.90;;;;;;5074002;28;20175;-87
2021/01/27 01:42:02;;;;;;;30.13;20.10;;;0.70;99.90;;;;;;5073901;28;20190;-86
2021/01/27 01:44:28;;;;;;;33.20;21.33;;;0.70;99.90;;;;;;5075068;28;20203;-87
2021/01/27 01:46:55;;;;;;;40.57;24.87;;;0.60;99.90;;;;;;5075088;28;20186;-86
2021/01/27 01:49:26;;;;;;;39.80;22.67;;;0.70;99.90;;;;;;5073830;28;20290;-86
2021/01/27 01:51:58;;;;;;;38.17;22.67;;;0.80;99.90;;;;;;5073826;28;20198;-86
2021/01/27 01:54:36;;;;;;;34.20;21.70;;;0.80;99.90;;;;;;5074702;28;20256;-86
2021/01/27 01:57:14;;;;;;;30.77;20.17;;;0.80;99.90;;;;;;5073699;28;20182;-87
2021/01/27 01:59:47;;;;;;;36.30;21.50;;;0.70;99.90;;;;;;5073977;28;20179;-87
2021/01/27 02:02:19;;;;;;;36.77;22.17;;;0.80;99.90;;;;;;5074603;28;20272;-87
2021/01/27 02:04:56;;;;;;;32.27;21.00;;;0.80;99.90;;;;;;5074607;28;20253;-87
2021/01/27 02:07:30;;;;;;;35.63;21.43;;;0.70;99.90;;;;;;5073328;28;20179;-87
2021/01/27 02:10:01;;;;;;;41.63;22.97;;;0.80;99.90;;;;;;5074470;28;20207;-87
2021/01/27 02:12:44;;;;;;;30.37;20.37;;;0.80;99.90;;;;;;5073382;28;20183;-87
2021/01/27 02:15:35;;;;;;;32.43;20.37;;;0.80;99.90;;;;;;5074708;28;20199;-87
2021/01/27 02:18:31;;;;;;;36.23;21.33;;;0.90;99.90;;;;;;5073181;28;20176;-87
2021/01/27 02:21:31;;;;;;;33.43;21.13;;;0.80;99.90;;;;;;5073751;28;20266;-87
2021/01/27 02:24:30;;;;;;;35.17;21.53;;;0.80;99.90;;;;;;5074333;28;20183;-87
2021/01/27 02:27:10;;;;;;;29.90;19.20;;;0.80;99.90;;;;;;5074656;28;20187;-87
2021/01/27 02:29:53;;;;;;;33.07;20.77;;;0.90;99.90;;;;;;5072954;28;20211;-87
2021/01/27 02:32:38;;;;;;;36.13;21.90;;;0.80;99.90;;;;;;5074569;28;20170;-87
2021/01/27 02:35:11;;;;;;;39.37;21.50;;;0.80;99.90;;;;;;5072797;28;20286;-86
2021/01/27 02:37:58;;;;;;;33.33;21.40;;;0.70;99.90;;;;;;5074115;28;20179;-87
2021/01/27 02:40:39;;;;;;;41.27;22.80;;;0.70;99.90;;;;;;5073987;28;20167;-87
2021/01/27 02:43:24;;;;;;;35.93;22.43;;;0.80;99.90;;;;;;5072828;28;20197;-87
2021/01/27 02:46:01;;;;;;;35.27;22.87;;;0.80;99.90;;;;;;5072831;28;20566;-87
2021/01/27 02:48:46;;;;;;;37.23;22.83;;;0.80;99.90;;;;;;5072588;28;20195;-87
2021/01/27 02:51:38;;;;;;;39.13;23.87;;;0.70;99.90;;;;;;5072554;28;20176;-87
2021/01/27 02:54:35;;;;;;;37.37;23.90;;;0.80;99.90;;;;;;5073686;28;20178;-87
2021/01/27 02:57:18;;;;;;;38.27;23.33;;;0.80;99.90;;;;;;5073743;28;20178;-87
2021/01/27 03:00:15;;;;;;;35.27;23.30;;;0.80;99.90;;;;;;5073114;28;20282;-87
2021/01/27 03:03:07;;;;;;;37.77;23.90;;;0.80;99.90;;;;;;5073591;28;20164;-87
2021/01/27 03:05:43;;;;;;;36.73;23.63;;;0.90;99.90;;;;;;5072474;28;20211;-87
2021/01/27 03:08:27;;;;;;;36.60;23.93;;;0.90;99.90;;;;;;5073417;28;20203;-87
2021/01/27 03:11:09;;;;;;;35.80;23.73;;;0.80;99.90;;;;;;5072327;28;20203;-87
2021/01/27 03:13:44;;;;;;;36.70;23.43;;;0.80;99.90;;;;;;5071505;28;20171;-87
2021/01/27 03:16:27;;;;;;;39.27;24.43;;;0.80;99.90;;;;;;5073376;28;20269;-87
2021/01/27 03:19:16;;;;;;;45.47;26.43;;;0.80;99.90;;;;;;5072281;28;20175;-87
2021/01/27 03:21:58;;;;;;;46.20;25.87;;;0.80;99.90;;;;;;5073523;28;20171;-87
2021/01/27 03:24:36;;;;;;;40.43;26.80;;;0.90;99.90;;;;;;5073266;28;20789;-87
2021/01/27 03:27:25;;;;;;;42.30;25.70;;;0.80;99.90;;;;;;5072321;28;20171;-87
2021/01/27 03:30:02;;;;;;;43.37;26.43;;;0.80;99.90;;;;;;5072101;28;20213;-87
2021/01/27 03:32:55;;;;;;;40.87;26.23;;;0.90;99.90;;;;;;5072040;28;20722;-87
2021/01/27 03:35:42;;;;;;;46.17;26.50;;;0.90;99.90;;;;;;5071868;28;20198;-87
2021/01/27 03:38:29;;;;;;;43.40;28.13;;;0.80;99.90;;;;;;5073511;28;20262;-87
2021/01/27 03:41:05;;;;;;;42.07;27.67;;;0.90;99.90;;;;;;5073229;28;20643;-87
2021/01/27 03:43:45;;;;;;;46.20;29.37;;;0.80;99.90;;;;;;5072213;28;20182;-87
2021/01/27 03:46:24;;;;;;;45.20;28.90;;;0.90;99.90;;;;;;5073234;28;20196;-87
2021/01/27 03:49:10;;;;;;;46.97;29.53;;;0.90;99.90;;;;;;5071721;28;20678;-87
2021/01/27 03:51:47;;;;;;;46.83;29.10;;;0.90;99.90;;;;;;5073016;28;20170;-87
2021/01/27 03:56:54;;;;;;;44.93;30.10;;;0.90;99.90;;;;;;5093156;22;20239;-90
2021/01/27 03:59:20;;;;;;;51.80;30.67;;;0.90;99.90;;;;;;5071944;28;20171;-90
2021/01/27 04:02:01;;;;;;;55.67;31.73;;;0.90;99.90;;;;;;5073034;28;20266;-90
2021/01/27 04:04:36;;;;;;;47.57;31.93;;;1.00;99.90;;;;;;5073105;28;20515;-90
2021/01/27 04:07:10;;;;;;;47.67;31.10;;;1.00;99.90;;;;;;5072207;28;20264;-90
2021/01/27 04:09:43;;;;;;;51.90;31.30;;;0.90;99.90;;;;;;5072058;28;20199;-90
2021/01/27 04:12:16;;;;;;;52.97;33.73;;;1.00;99.90;;;;;;5073045;28;20168;-90
2021/01/27 04:14:51;;;;;;;50.17;32.83;;;1.00;99.90;;;;;;5071886;28;20195;-90
2021/01/27 04:17:31;;;;;;;49.17;33.00;;;1.00;99.90;;;;;;5072636;28;20232;-90
2021/01/27 04:20:04;;;;;;;50.03;33.17;;;0.90;99.90;;;;;;5071842;28;20177;-90
2021/01/27 04:22:41;;;;;;;59.37;37.10;;;1.00;99.90;;;;;;5072136;28;20179;-90
2021/01/27 04:25:11;;;;;;;55.27;34.67;;;1.00;99.90;;;;;;5075187;28;20228;-90
2021/01/27 04:27:49;;;;;;;56.57;36.37;;;1.00;99.90;;;;;;5075877;28;20281;-89
2021/01/27 04:30:23;;;;;;;59.13;37.13;;;1.10;99.90;;;;;;5075632;28;20184;-90
2021/01/27 04:33:06;;;;;;;62.27;38.67;;;1.10;99.90;;;;;;5075418;28;20525;-90
2021/01/27 04:35:38;;;;;;;62.73;38.23;;;1.10;99.90;;;;;;5076521;28;20188;-90
2021/01/27 04:38:11;;;;;;;59.27;36.77;;;1.10;99.90;;;;;;5076045;28;20635;-90
2021/01/27 04:40:48;;;;;;;61.20;36.43;;;1.10;99.90;;;;;;5076526;28;20167;-90
2021/01/27 04:43:30;;;;;;;58.70;36.90;;;1.20;99.90;;;;;;5075863;28;20532;-90
2021/01/27 04:46:12;;;;;;;56.33;35.53;;;1.20;99.90;;;;;;5075264;28;20191;-90
2021/01/27 04:48:55;;;;;;;55.77;34.80;;;1.20;99.90;;;;;;5075065;28;20192;-89
2021/01/27 04:51:31;;;;;;;56.37;35.17;;;1.20;99.90;;;;;;5075387;28;20195;-90
2021/01/27 04:54:21;;;;;;;59.23;35.03;;;1.20;99.90;;;;;;5075588;28;20174;-90
2021/01/27 04:57:31;;;;;;;55.10;34.27;;;1.20;99.90;;;;;;5075221;28;20658;-90
2021/01/27 05:00:20;;;;;;;53.33;36.30;;;1.30;99.90;;;;;;5054152;28;20218;-89
2021/01/27 05:03:14;;;;;;;63.37;38.27;;;1.30;99.90;;;;;;5074915;28;20255;-89
2021/01/27 05:05:55;;;;;;;56.43;34.43;;;1.30;99.90;;;;;;5074578;28;20191;-89
2021/01/27 05:08:36;;;;;;;58.37;39.63;;;1.30;99.90;;;;;;5075156;28;20191;-89
2021/01/27 05:11:16;;;;;;;53.70;37.17;;;1.30;99.90;;;;;;5075971;28;20163;-89
2021/01/27 05:13:51;;;;;;;57.53;35.87;;;1.30;99.90;;;;;;5074750;28;20171;-89
2021/01/27 05:16:26;;;;;;;53.50;33.77;;;1.40;99.90;;;;;;5075996;28;20568;-89
2021/01/27 05:18:59;;;;;;;65.97;40.03;;;1.40;99.90;;;;;;5074609;28;20174;-89
2021/01/27 05:21:45;;;;;;;66.30;40.83;;;1.30;99.90;;;;;;5074912;28;20666;-89
2021/01/27 05:24:18;;;;;;;68.07;39.00;;;1.30;99.90;;;;;;5075708;28;20176;-89
2021/01/27 05:27:15;;;;;;;61.40;40.07;;;1.30;99.90;;;;;;5074457;28;20175;-89
2021/01/27 05:30:25;;;;;;;61.67;38.37;;;1.30;99.90;;;;;;5074849;28;20659;-89
2021/01/27 05:32:58;;;;;;;65.10;40.53;;;1.20;99.90;;;;;;5074297;28;20259;-89
2021/01/27 05:35:31;;;;;;;69.03;41.03;;;1.30;99.90;;;;;;5073419;28;20197;-89
2021/01/27 05:38:31;;;;;;;59.87;38.43;;;1.20;99.90;;;;;;5074255;28;20180;-89
2021/01/27 05:41:26;;;;;;;63.83;40.57;;;1.30;99.90;;;;;;5074292;28;20554;-90
2021/01/27 05:44:06;;;;;;;71.70;41.80;;;1.20;99.90;;;;;;5074409;28;20176;-90
2021/01/27 05:46:41;;;;;;;74.37;44.23;;;1.30;99.90;;;;;;5075274;28;20623;-90
2021/01/27 05:49:31;;;;;;;64.33;39.17;;;1.20;99.90;;;;;;5074509;28;20222;-90
2021/01/27 05:52:21;;;;;;;66.80;43.90;;;1.30;99.90;;;;;;5073963;28;20175;-90
2021/01/27 05:54:53;;;;;;;76.73;44.27;;;1.30;99.90;;;;;;5074113;28;20209;-90
2021/01/27 05:57:27;;;;;;;67.17;38.17;;;1.30;99.90;;;;;;5073905;28;20597;-89
2021/01/27 06:00:15;;;;;;;71.83;41.07;;;1.30;99.90;;;;;;5074401;28;20186;-89
2021/01/27 06:02:51;;;;;;;83.43;45.20;;;1.30;99.90;;;;;;5074179;28;20179;-89
2021/01/27 06:05:27;;;;;;;77.47;45.50;;;1.30;99.90;;;;;;5073518;28;20201;-90
2021/01/27 06:08:19;;;;;;;68.73;36.77;;;1.30;99.90;;;;;;5074293;28;20179;-90
2021/01/27 06:10:53;;;;;;;67.50;39.53;;;1.30;99.90;;;;;;5074913;28;20636;-89
2021/01/27 06:13:31;;;;;;;72.47;43.23;;;1.30;99.90;;;;;;5073861;28;20172;-90
2021/01/27 06:15:58;;;;;;;68.17;41.83;;;1.30;99.90;;;;;;5073603;28;20205;-89
2021/01/27 06:18:34;;;;;;;69.57;40.77;;;1.30;99.90;;;;;;5073877;28;20207;-90
2021/01/27 06:21:28;;;;;;;72.67;43.90;;;1.30;99.90;;;;;;5073290;28;20294;-89
2021/01/27 06:24:14;;;;;;;71.77;44.53;;;1.30;99.90;;;;;;5074489;28;20176;-89
2021/01/27 06:27:36;;;;;;;70.47;42.63;;;1.30;99.90;;;;;;5074769;28;20203;-89
2021/01/27 06:30:25;;;;;;;62.50;37.40;;;1.30;99.90;;;;;;5073470;28;20237;-90
2021/01/27 06:33:09;;;;;;;62.33;34.77;;;1.30;99.90;;;;;;5073164;28;20176;-89
2021/01/27 06:36:07;;;;;;;64.50;38.87;;;1.30;99.90;;;;;;5073703;28;20214;-90
2021/01/27 06:38:57;;;;;;;59.47;38.17;;;1.30;99.90;;;;;;5073028;28;20621;-89
2021/01/27 06:42:11;;;;;;;55.73;30.53;;;1.20;99.90;;;;;;5074706;28;20513;-89
2021/01/27 06:44:47;;;;;;;49.03;33.20;;;1.20;99.90;;;;;;5072891;28;20195;-89
2021/01/27 06:47:29;;;;;;;58.23;37.77;;;1.20;99.90;;;;;;5072872;28;20175;-90
2021/01/27 06:50:21;;;;;;;61.30;39.70;;;1.20;99.90;;;;;;5072811;28;20687;-89
2021/01/27 06:53:35;;;;;;;56.53;35.17;;;1.10;99.90;;;;;;5073353;28;20266;-89
2021/01/27 06:56:30;;;;;;;63.20;39.90;;;1.10;99.90;;;;;;5069202;28;20219;-89
2021/01/27 06:59:35;;;;;;;51.17;35.23;;;1.10;99.90;;;;;;5072659;28;20179;-89
2021/01/27 07:02:20;;;;;;;55.03;34.20;;;1.10;99.90;;;;;;5072579;28;20205;-89
2021/01/27 07:05:16;;;;;;;58.10;38.10;;;1.10;99.90;;;;;;5072923;28;20728;-89
2021/01/27 07:07:58;;;;;;;55.80;38.40;;;1.10;99.90;;;;;;5072556;28;20199;-89
2021/01/27 07:11:09;;;;;;;55.97;35.43;;;1.10;99.90;;;;;;5072690;28;20190;-90
2021/01/27 07:14:19;;;;;;;55.73;35.83;;;1.10;99.90;;;;;;5072808;28;20163;-89
2021/01/27 07:17:14;;;;;;;60.63;39.90;;;1.10;99.90;;;;;;5072750;28;20167;-89
2021/01/27 07:20:11;;;;;;;35.77;23.63;;;1.00;99.90;;;;;;5072750;28;20201;-90
2021/01/27 07:23:04;;;;;;;56.40;34.73;;;1.10;99.90;;;;;;5072302;28;20179;-90
2021/01/27 07:25:57;;;;;;;40.80;22.47;;;1.00;99.90;;;;;;5072240;28;20221;-89
2021/01/27 07:28:32;;;;;;;47.87;30.77;;;1.10;99.90;;;;;;5072171;28;20217;-90
2021/01/27 07:31:26;;;;;;;55.63;36.70;;;1.00;99.90;;;;;;5073511;28;20241;-89
2021/01/27 07:34:13;;;;;;;53.53;34.87;;;1.00;99.90;;;;;;5073465;28;20163;-89
2021/01/27 07:36:59;;;;;;;51.60;34.70;;;1.00;99.90;;;;;;5073383;28;20513;-90
2021/01/27 07:39:57;;;;;;;63.57;38.47;;;1.00;99.90;;;;;;5072084;28;20175;-90
2021/01/27 07:42:59;;;;;;;57.37;35.77;;;1.00;99.90;;;;;;5072970;28;20304;-90
2021/01/27 07:45:44;;;;;;;58.13;36.53;;;1.00;99.90;;;;;;5072343;28;20195;-90
2021/01/27 07:48:55;;;;;;;53.70;33.07;;;1.00;99.90;;;;;;5073202;28;20191;-89
2021/01/27 07:51:54;;;;;;;54.70;34.50;;;1.00;99.90;;;;;;5072284;28;20171;-89
2021/01/27 07:54:29;;;;;;;55.83;34.03;;;1.00;99.90;;;;;;5073164;28;20171;-89
2021/01/27 07:57:07;;;;;;;57.80;35.33;;;1.00;99.90;;;;;;5073260;28;20174;-90
2021/01/27 07:59:49;;;;;;;59.83;37.63;;;1.00;99.90;;;;;;5076106;28;20642;-90
2021/01/27 08:02:25;;;;;;;52.73;31.67;;;1.00;99.90;;;;;;5076102;28;20647;-90
2021/01/27 08:05:08;;;;;;;57.30;34.30;;;1.00;99.90;;;;;;5075899;28;20191;-90
2021/01/27 08:07:49;;;;;;;37.73;23.37;;;1.00;99.90;;;;;;5077426;28;20595;-89
2021/01/27 08:10:31;;;;;;;57.57;36.43;;;1.00;99.90;;;;;;5076850;28;20317;-90
2021/01/27 08:13:09;;;;;;;56.03;34.07;;;1.00;99.90;;;;;;5077107;28;20177;-90
2021/01/27 08:16:01;;;;;;;55.50;33.30;;;1.00;99.90;;;;;;5075801;28;20213;-90
2021/01/27 08:18:36;;;;;;;59.77;36.00;;;1.00;99.90;;;;;;5076051;28;20183;-90
2021/01/27 08:21:25;;;;;;;56.23;33.23;;;1.00;99.90;;;;;;5075837;28;20174;-90
2021/01/27 08:23:55;;;;;;;50.37;32.43;;;1.10;99.90;;;;;;5075964;28;20214;-90
2021/01/27 08:26:49;;;;;;;47.80;28.67;;;1.10;99.90;;;;;;5075628;28;20243;-90
2021/01/27 08:29:30;;;;;;;46.97;31.23;;;1.00;99.90;;;;;;5075801;28;20590;-89
2021/01/27 08:32:29;;;;;;;51.77;35.67;;;1.00;99.90;;;;;;5075412;28;20178;-90
2021/01/27 08:35:03;;;;;;;52.17;32.63;;;1.10;99.90;;;;;;5075641;28;20193;-90
2021/01/27 08:37:37;;;;;;;48.10;33.40;;;1.10;99.90;;;;;;5076650;28;20174;-90
2021/01/27 08:40:27;;;;;;;48.67;32.03;;;1.10;99.90;;;;;;5075471;28;20241;-90
2021/01/27 08:43:13;;;;;;;50.87;33.03;;;1.10;99.90;;;;;;5076653;28;20586;-90
2021/01/27 08:45:40;;;;;;;45.90;28.83;;;1.10;99.90;;;;;;5075424;28;20200;-90
2021/01/27 08:48:34;;;;;;;50.17;30.70;;;1.20;99.90;;;;;;5076617;28;20258;-90
2021/01/27 08:51:07;;;;;;;46.00;32.03;;;1.20;99.90;;;;;;5074486;28;20173;-90
2021/01/27 08:54:01;;;;;;;50.50;33.90;;;1.20;99.90;;;;;;5075152;28;20223;-91
2021/01/27 08:57:11;;;;;;;46.97;28.33;;;1.20;99.90;;;;;;5077187;28;20207;-91
2021/01/27 09:00:13;;;;;;;52.13;31.73;;;1.30;99.90;;;;;;5076309;28;20179;-91
2021/01/27 09:02:56;;;;;;;42.73;31.63;;;1.40;99.90;;;;;;5076960;28;20168;-91
2021/01/27 09:05:28;;;;;;;36.73;25.67;;;1.30;99.90;;;;;;5074923;28;20249;-91
2021/01/27 09:08:00;;;;;;;42.93;29.77;;;1.40;99.90;;;;;;5074966;28;20694;-91
2021/01/27 09:10:41;;;;;;;35.33;26.53;;;1.50;99.90;;;;;;5073820;28;20205;-91
2021/01/27 09:13:38;;;;;;;38.27;26.37;;;1.40;99.90;;;;;;5075254;28;20653;-91
2021/01/27 09:16:23;;;;;;;27.50;19.30;;;1.50;99.90;;;;;;5076027;28;20187;-91
2021/01/27 09:19:02;;;;;;;28.63;21.47;;;1.50;99.90;;;;;;5076471;28;20165;-91
2021/01/27 09:21:29;;;;;;;32.77;23.03;;;1.70;99.90;;;;;;5076359;28;20225;-91
2021/01/27 09:24:08;;;;;;;19.20;10.83;;;1.70;99.90;;;;;;5076329;28;20170;-91
2021/01/27 09:26:53;;;;;;;29.20;22.27;;;1.70;99.90;;;;;;5075756;28;20219;-91
2021/01/27 09:29:32;;;;;;;26.57;19.87;;;1.80;99.90;;;;;;5074341;28;20197;-91
2021/01/27 09:32:21;;;;;;;28.00;19.90;;;1.90;99.90;;;;;;5074471;28;20591;-91
2021/01/27 09:35:08;;;;;;;29.30;19.17;;;1.90;99.90;;;;;;5074327;28;20200;-90
2021/01/27 09:37:45;;;;;;;23.43;18.03;;;1.90;99.90;;;;;;5074402;28;20171;-90
2021/01/27 09:40:31;;;;;;;28.13;21.27;;;2.00;99.90;;;;;;5074337;28;20177;-90
2021/01/27 09:42:59;;;;;;;28.63;19.87;;;2.00;99.90;;;;;;5075437;28;20238;-90
2021/01/27 09:45:28;;;;;;;17.77;13.87;;;2.00;99.90;;;;;;5075362;28;20191;-90
2021/01/27 09:48:00;;;;;;;24.27;13.63;;;2.00;99.90;;;;;;5074161;28;20200;-89
2021/01/27 09:50:30;;;;;;;22.80;16.43;;;2.00;99.90;;;;;;5074969;28;20173;-88
2021/01/27 09:53:06;;;;;;;24.87;18.93;;;2.00;99.90;;;;;;5073919;28;20172;-89
2021/01/27 09:55:41;;;;;;;21.80;14.80;;;2.10;99.90;;;;;;5158626;22;20238;-88
2021/01/27 09:58:11;;;;;;;24.87;18.03;;;2.00;99.90;;;;;;5073846;28;20595;-87
2021/01/27 10:00:47;;;;;;;25.63;18.50;;;2.00;99.90;;;;;;5074097;28;20643;-86
2021/01/27 10:03:44;;;;;;;29.77;18.57;;;2.10;99.90;;;;;;5074199;28;20175;-86
2021/01/27 10:06:37;;;;;;;17.97;12.50;;;2.10;99.90;;;;;;5073991;28;20654;-88
2021/01/27 10:09:19;;;;;;;27.90;18.40;;;2.00;99.90;;;;;;5073680;28;20699;-87
2021/01/27 10:11:58;;;;;;;23.93;17.13;;;2.10;99.90;;;;;;5075828;28;20152;-87
2021/01/27 10:14:29;;;;;;;23.03;16.97;;;2.10;99.90;;;;;;5075483;28;20156;-85
2021/01/27 10:17:04;;;;;;;24.30;15.73;;;2.20;99.90;;;;;;5074119;28;20190;-86
2021/01/27 10:19:38;;;;;;;20.97;16.17;;;2.20;99.90;;;;;;5075359;28;20255;-87
2021/01/27 10:22:10;;;;;;;21.57;13.53;;;2.20;99.90;;;;;;5074004;28;20170;-86
2021/01/27 10:24:47;;;;;;;15.40;10.37;;;2.30;99.90;;;;;;5074500;28;20238;-87
2021/01/27 10:27:34;;;;;;;18.97;13.03;;;2.30;99.90;;;;;;5073469;28;20226;-88
2021/01/27 10:30:18;;;;;;;18.97;13.23;;;2.30;99.90;;;;;;5073307;28;20201;-86
2021/01/27 10:32:49;;;;;;;19.43;14.43;;;2.40;99.90;;;;;;5075764;28;20635;-86
2021/01/27 10:35:25;;;;;;;16.70;12.57;;;2.40;99.90;;;;;;5073962;28;20192;-88
2021/01/27 10:38:01;;;;;;;16.57;12.20;;;2.30;99.90;;;;;;5074052;28;20184;-89
2021/01/27 10:40:35;;;;;;;17.57;12.60;;;2.40;99.90;;;;;;5075519;28;20529;-88
2021/01/27 10:43:18;;;;;;;17.77;12.00;;;2.30;99.90;;;;;;5075278;28;20193;-88
2021/01/27 10:45:51;;;;;;;18.73;13.90;;;2.40;99.90;;;;;;5073123;28;20223;-88
2021/01/27 10:48:35;;;;;;;19.63;12.87;;;2.40;99.90;;;;;;5074217;28;20193;-91
2021/01/27 10:51:12;;;;;;;17.97;12.43;;;2.40;99.90;;;;;;5072986;28;20214;-92
2021/01/27 10:53:48;;;;;;;18.37;12.73;;;2.30;99.90;;;;;;5072777;28;20159;-91
2021/01/27 10:56:23;;;;;;;16.17;11.57;;;2.40;99.90;;;;;;5072574;28;20217;-91
2021/01/27 10:58:55;;;;;;;15.60;10.93;;;2.40;99.90;;;;;;5072802;28;20174;-91
2021/01/27 11:01:30;;;;;;;16.40;11.57;;;2.30;99.90;;;;;;5072824;28;20209;-91
2021/01/27 11:04:08;;;;;;;17.07;10.97;;;2.40;99.90;;;;;;5072542;28;20212;-91
2021/01/27 11:06:44;;;;;;;16.13;9.30;;;2.40;99.90;;;;;;5072466;28;20200;-91
2021/01/27 11:09:20;;;;;;;13.63;10.63;;;2.40;99.90;;;;;;5072436;28;20198;-91
2021/01/27 11:11:51;;;;;;;17.50;11.37;;;2.40;99.90;;;;;;5072495;28;20603;-92
2021/01/27 11:14:26;;;;;;;17.90;11.00;;;2.40;99.90;;;;;;5072953;28;20174;-92
2021/01/27 11:17:00;;;;;;;7.83;6.53;;;2.50;99.90;;;;;;5072905;28;20672;-92
2021/01/27 11:19:37;;;;;;;14.73;10.43;;;2.40;99.90;;;;;;5073235;28;20615;-92
2021/01/27 11:22:11;;;;;;;12.20;8.87;;;2.50;99.90;;;;;;5072400;28;20266;-92
2021/01/27 11:24:47;;;;;;;14.20;11.13;;;2.50;99.90;;;;;;5072418;28;20626;-92
2021/01/27 11:27:21;;;;;;;13.73;10.10;;;2.50;99.90;;;;;;5072272;28;20175;-91
2021/01/27 11:29:51;;;;;;;15.33;10.70;;;2.50;99.90;;;;;;5073792;28;20190;-91
2021/01/27 11:32:27;;;;;;;14.37;11.17;;;2.50;99.90;;;;;;5073402;28;20283;-91
2021/01/27 11:35:01;;;;;;;17.03;11.77;;;2.60;99.90;;;;;;5073064;28;20159;-91
2021/01/27 11:37:32;;;;;;;18.83;10.53;;;2.60;99.90;;;;;;5072173;28;20178;-91
2021/01/27 11:40:04;;;;;;;13.57;9.27;;;2.60;99.90;;;;;;5072237;28;20175;-90
2021/01/27 11:42:41;;;;;;;10.47;8.07;;;2.60;99.90;;;;;;5073464;28;20648;-91
2021/01/27 11:45:12;;;;;;;11.77;8.33;;;2.70;99.90;;;;;;5072096;28;20200;-91
2021/01/27 11:47:43;;;;;;;7.93;5.97;;;2.70;99.90;;;;;;5073293;28;20187;-91
2021/01/27 11:50:21;;;;;;;11.20;8.87;;;2.70;99.90;;;;;;5071990;28;20674;-92
2021/01/27 11:52:53;;;;;;;12.03;8.40;;;2.70;99.90;;;;;;5072261;28;20237;-91
2021/01/27 11:55:25;;;;;;;13.50;9.80;;;2.70;99.90;;;;;;5072945;28;20228;-91
2021/01/27 11:57:56;;;;;;;11.63;8.43;;;2.80;99.90;;;;;;5071946;28;20529;-90
2021/01/27 12:00:30;;;;;;;11.87;9.07;;;2.80;99.90;;;;;;5071884;28;20171;-91
2021/01/27 12:03:02;;;;;;;12.90;9.53;;;2.80;99.90;;;;;;5071938;28;20168;-91
2021/01/27 12:05:37;;;;;;;10.57;7.73;;;2.90;99.90;;;;;;5072324;28;20198;-91
2021/01/27 12:08:09;;;;;;;10.37;6.87;;;2.80;99.90;;;;;;5074290;28;20165;-91
2021/01/27 12:10:41;;;;;;;13.03;10.10;;;2.80;99.90;;;;;;5071863;28;20167;-91
2021/01/27 12:13:18;;;;;;;10.30;8.00;;;2.90;99.90;;;;;;5072979;28;20666;-90
2021/01/27 12:15:51;;;;;;;8.87;6.13;;;2.90;99.90;;;;;;5072236;28;20198;-90
2021/01/27 12:18:25;;;;;;;10.27;8.30;;;2.90;99.90;;;;;;5071940;28;20176;-91
2021/01/27 12:20:59;;;;;;;7.47;6.20;;;2.90;99.90;;;;;;5073325;28;20176;-90
2021/01/27 12:23:31;;;;;;;11.23;6.93;;;2.90;99.90;;;;;;5072570;28;20530;-90
2021/01/27 12:26:05;;;;;;;10.10;6.83;;;3.00;99.90;;;;;;5071538;28;20197;-90
2021/01/27 12:28:37;;;;;;;9.07;7.23;;;3.00;99.90;;;;;;5072162;28;20189;-90
2021/01/27 12:31:03;;;;;;;9.90;8.50;;;2.90;99.90;;;;;;5071574;28;20172;-90
2021/01/27 12:33:39;;;;;;;10.67;7.80;;;3.00;99.90;;;;;;5071552;28;20178;-89
2021/01/27 12:36:06;;;;;;;8.03;5.57;;;2.90;99.90;;;;;;5072759;28;20277;-89
2021/01/27 12:38:37;;;;;;;6.90;5.63;;;3.00;99.90;;;;;;5072763;28;20182;-90
2021/01/27 12:41:03;;;;;;;10.83;8.73;;;3.00;99.90;;;;;;5071891;28;20225;-90
2021/01/27 12:43:30;;;;;;;8.77;7.60;;;3.00;99.90;;;;;;5071435;28;20283;-90
2021/01/27 12:45:58;;;;;;;11.00;7.37;;;3.00;99.90;;;;;;5075757;28;20204;-89
2021/01/27 12:48:25;;;;;;;9.03;7.37;;;2.90;99.90;;;;;;5075062;28;20198;-90
2021/01/27 12:50:51;;;;;;;9.80;8.13;;;2.90;99.90;;;;;;5075231;28;20210;-89
2021/01/27 12:53:19;;;;;;;8.03;7.13;;;2.90;99.90;;;;;;5075467;28;20176;-90
2021/01/27 12:55:45;;;;;;;8.90;7.57;;;2.90;99.90;;;;;;5076253;28;20683;-90
2021/01/27 12:58:11;;;;;;;12.67;7.83;;;2.80;99.90;;;;;;5075013;28;20170;-89
2021/01/27 13:00:41;;;;;;;11.43;8.17;;;2.90;99.90;;;;;;5074837;28;20268;-89
2021/01/27 13:03:08;;;;;;;7.00;6.17;;;2.90;99.90;;;;;;5074939;28;20565;-89
2021/01/27 13:05:38;;;;;;;9.27;6.90;;;2.80;99.90;;;;;;5075139;28;20192;-90
2021/01/27 13:08:05;;;;;;;6.60;6.00;;;2.80;99.90;;;;;;5075166;28;20175;-89
2021/01/27 13:10:40;;;;;;;6.43;5.27;;;2.80;99.90;;;;;;5074855;28;20669;-89
2021/01/27 13:13:11;;;;;;;10.03;7.90;;;2.80;99.90;;;;;;5074729;28;20262;-89
2021/01/27 13:15:37;;;;;;;4.60;4.17;;;2.80;99.90;;;;;;5076145;28;20606;-89
2021/01/27 13:18:06;;;;;;;6.93;6.23;;;2.80;99.90;;;;;;5075997;28;20689;-89
2021/01/27 13:20:40;;;;;;;8.10;7.10;;;2.80;99.90;;;;;;5074881;28;20167;-90
2021/01/27 13:23:19;;;;;;;7.83;6.87;;;2.80;99.90;;;;;;5074482;28;20168;-91
2021/01/27 13:25:50;;;;;;;10.17;7.50;;;2.80;99.90;;;;;;5076022;28;20269;-90
2021/01/27 13:28:28;;;;;;;8.40;7.07;;;2.80;99.90;;;;;;5074386;28;20173;-90
2021/01/27 13:31:06;;;;;;;8.40;7.00;;;2.80;99.90;;;;;;5075308;28;20575;-91
2021/01/27 13:33:40;;;;;;;11.57;6.17;;;2.80;99.90;;;;;;5075992;28;20565;-90
2021/01/27 13:36:19;;;;;;;7.77;6.57;;;2.80;99.90;;;;;;5074757;28;20567;-90
2021/01/27 13:38:50;;;;;;;6.63;6.03;;;2.80;99.90;;;;;;5075502;28;20168;-90
2021/01/27 13:41:27;;;;;;;8.60;7.80;;;2.80;99.90;;;;;;5075428;28;20175;-90